createdAt,value
2023-02-12T00:02:30.724Z,6.92
2023-02-12T00:05:00.254Z,8.30
2023-02-12T00:07:31.748Z,7.10
2023-02-12T00:10:01.605Z,7.20
2023-02-12T00:12:32.269Z,8.50
2023-02-12T00:15:01.833Z,7.70
2023-02-12T00:17:31.599Z,7.90
2023-02-12T00:20:01.696Z,8.18
2023-02-12T00:22:31.507Z,7.53
2023-02-12T00:25:01.299Z,7.20
2023-02-12T00:27:35.502Z,7.10
2023-02-12T00:30:05.599Z,7.53
2023-02-12T00:32:36.986Z,7.53
2023-02-12T00:35:06.931Z,7.70
2023-02-12T00:37:36.991Z,7.70
2023-02-12T00:40:07.613Z,8.40
2023-02-12T00:42:37.645Z,6.67
2023-02-12T00:45:07.771Z,7.43
2023-02-12T00:47:37.529Z,7.40
2023-02-12T00:50:07.990Z,7.80
2023-02-12T00:52:38.114Z,7.35
2023-02-12T00:55:07.930Z,7.37
2023-02-12T00:57:37.746Z,7.33
2023-02-12T01:00:07.983Z,7.23
2023-02-12T01:02:38.761Z,6.17
2023-02-12T01:05:09.895Z,6.87
2023-02-12T01:07:40.689Z,7.58
2023-02-12T01:10:10.739Z,7.33
2023-02-12T01:12:40.412Z,8.20
2023-02-12T01:15:14.058Z,6.70
2023-02-12T01:17:44.445Z,7.70
2023-02-12T01:20:20.634Z,6.90
2023-02-12T01:22:51.796Z,6.00
2023-02-12T01:25:22.966Z,6.73
2023-02-12T01:27:54.720Z,6.58
2023-02-12T01:30:24.870Z,6.30
2023-02-12T01:32:55.580Z,7.73
2023-02-12T01:35:25.109Z,6.55
2023-02-12T01:37:57.425Z,7.13
2023-02-12T01:40:27.533Z,6.27
2023-02-12T01:42:58.817Z,7.13
2023-02-12T01:45:31.604Z,6.17
2023-02-12T01:48:02.471Z,6.00
2023-02-12T01:50:32.241Z,6.15
2023-02-12T01:53:02.693Z,6.15
2023-02-12T01:55:32.607Z,7.10
2023-02-12T01:58:05.443Z,6.50
2023-02-12T02:00:35.284Z,7.57
2023-02-12T02:03:06.433Z,7.12
2023-02-12T02:05:50.982Z,6.87
2023-02-12T02:08:20.614Z,6.47
2023-02-12T02:10:50.399Z,6.80
2023-02-12T02:13:38.719Z,5.70
2023-02-12T02:16:11.470Z,6.60
2023-02-12T02:18:47.256Z,6.30
2023-02-12T02:21:48.757Z,6.87
2023-02-12T02:24:39.663Z,5.65
2023-02-12T02:27:17.676Z,5.60
2023-02-12T02:30:06.716Z,6.60
2023-02-12T02:32:39.495Z,6.00
2023-02-12T02:35:18.444Z,6.40
2023-02-12T02:37:54.481Z,7.03
2023-02-12T02:40:30.266Z,6.55
2023-02-12T02:43:08.804Z,7.10
2023-02-12T02:45:56.240Z,7.10
2023-02-12T02:48:31.958Z,7.10
2023-02-12T02:51:08.298Z,6.90
2023-02-12T02:53:59.430Z,6.40
2023-02-12T02:56:30.911Z,7.33
2023-02-12T02:59:06.505Z,7.00
2023-02-12T03:01:39.387Z,5.57
2023-02-12T03:04:11.837Z,5.67
2023-02-12T03:06:53.241Z,7.03
2023-02-12T03:09:31.781Z,6.83
2023-02-12T03:12:04.882Z,6.60
2023-02-12T03:14:37.918Z,9.17
2023-02-12T03:17:10.466Z,8.60
2023-02-12T03:19:55.391Z,6.87
2023-02-12T03:22:27.926Z,6.13
2023-02-12T03:25:05.578Z,6.57
2023-02-12T03:27:38.240Z,6.77
2023-02-12T03:30:09.335Z,5.90
2023-02-12T03:35:17.775Z,5.45
2023-02-12T03:37:59.757Z,5.57
2023-02-12T03:40:37.631Z,6.90
2023-02-12T03:43:19.102Z,5.83
2023-02-12T03:45:55.189Z,6.10
2023-02-12T03:48:30.608Z,6.78
2023-02-12T03:51:03.393Z,6.87
2023-02-12T03:53:33.572Z,6.77
2023-02-12T03:56:06.425Z,6.73
2023-02-12T03:58:38.006Z,6.60
2023-02-12T04:01:08.202Z,6.23
2023-02-12T04:03:37.872Z,8.13
2023-02-12T04:06:09.289Z,6.07
2023-02-12T04:08:38.752Z,5.75
2023-02-12T04:11:30.971Z,7.27
2023-02-12T04:14:09.553Z,5.37
2023-02-12T04:17:08.002Z,5.57
2023-02-12T04:20:06.284Z,5.33
2023-02-12T04:22:58.454Z,5.80
2023-02-12T04:25:54.385Z,6.13
2023-02-12T04:28:30.379Z,7.13
2023-02-12T04:31:29.254Z,4.67
2023-02-12T04:34:14.013Z,5.73
2023-02-12T04:36:49.449Z,5.50
2023-02-12T04:39:21.960Z,6.20
2023-02-12T04:41:52.845Z,7.10
2023-02-12T04:44:25.920Z,8.30
2023-02-12T04:46:55.768Z,6.03
2023-02-12T04:49:26.550Z,7.25
2023-02-12T04:51:56.801Z,5.40
2023-02-12T04:54:26.712Z,6.23
2023-02-12T04:56:56.528Z,5.90
2023-02-12T04:59:26.339Z,6.63
2023-02-12T05:01:56.122Z,5.93
2023-02-12T05:04:26.010Z,6.23
2023-02-12T05:06:55.781Z,5.87
2023-02-12T05:09:25.529Z,5.80
2023-02-12T05:11:55.299Z,6.78
2023-02-12T05:14:29.837Z,6.50
2023-02-12T05:16:59.886Z,6.45
2023-02-12T05:19:31.611Z,6.03
2023-02-12T05:22:01.444Z,7.07
2023-02-12T05:24:31.202Z,6.37
2023-02-12T05:27:01.038Z,6.07
2023-02-12T05:29:30.977Z,6.03
2023-02-12T05:32:01.830Z,5.90
2023-02-12T05:34:31.829Z,6.55
2023-02-12T05:37:01.675Z,6.20
2023-02-12T05:39:32.656Z,6.57
2023-02-12T05:42:02.462Z,6.43
2023-02-12T05:44:32.272Z,6.23
2023-02-12T05:47:02.047Z,6.57
2023-02-12T05:49:31.806Z,5.37
2023-02-12T05:52:01.578Z,8.27
2023-02-12T05:54:32.482Z,6.67
2023-02-12T05:57:04.254Z,5.73
2023-02-12T05:59:34.080Z,6.83
2023-02-12T06:02:03.842Z,8.63
2023-02-12T06:04:33.658Z,5.37
2023-02-12T06:07:03.753Z,7.25
2023-02-12T06:09:36.433Z,6.63
2023-02-12T06:12:06.740Z,7.50
2023-02-12T06:14:38.454Z,6.30
2023-02-12T06:17:08.378Z,7.93
2023-02-12T06:19:38.396Z,6.43
2023-02-12T06:22:07.936Z,6.67
2023-02-12T06:24:37.711Z,8.43
2023-02-12T06:27:07.488Z,8.03
2023-02-12T06:29:37.229Z,5.83
2023-02-12T06:32:08.691Z,6.97
2023-02-12T06:34:38.423Z,7.83
2023-02-12T06:37:08.201Z,7.83
2023-02-12T06:39:39.119Z,8.50
2023-02-12T06:42:08.992Z,8.80
2023-02-12T06:44:38.559Z,7.63
2023-02-12T06:47:08.337Z,8.27
2023-02-12T06:49:38.409Z,11.28
2023-02-12T06:52:08.181Z,7.47
2023-02-12T06:54:37.962Z,7.87
2023-02-12T06:57:07.589Z,6.73
2023-02-12T06:59:37.889Z,8.87
2023-02-12T07:02:07.487Z,7.23
2023-02-12T07:04:39.356Z,7.53
2023-02-12T07:07:09.100Z,6.97
2023-02-12T07:09:38.964Z,7.87
2023-02-12T07:12:08.954Z,8.20
2023-02-12T07:14:40.575Z,7.10
2023-02-12T07:17:10.466Z,7.50
2023-02-12T07:19:40.228Z,6.47
2023-02-12T07:22:10.061Z,6.23
2023-02-12T07:24:40.122Z,8.37
2023-02-12T07:27:09.664Z,8.50
2023-02-12T07:29:39.421Z,6.27
2023-02-12T07:32:09.067Z,5.93
2023-02-12T07:34:38.839Z,5.90
2023-02-12T07:37:08.799Z,9.27
2023-02-12T07:39:39.464Z,6.70
2023-02-12T07:42:09.548Z,7.37
2023-02-12T07:44:40.752Z,8.67
2023-02-12T07:47:10.220Z,7.90
2023-02-12T07:49:39.997Z,7.57
2023-02-12T07:52:12.151Z,5.67
2023-02-12T07:54:41.017Z,5.77
2023-02-12T07:57:13.162Z,6.80
2023-02-12T07:59:42.904Z,6.83
2023-02-12T08:02:13.583Z,8.40
2023-02-12T08:04:43.492Z,6.20
2023-02-12T08:07:13.036Z,7.00
2023-02-12T08:09:42.936Z,6.03
2023-02-12T08:12:12.552Z,7.47
2023-02-12T08:14:43.327Z,5.90
2023-02-12T08:17:14.156Z,5.35
2023-02-12T08:19:43.721Z,6.73
2023-02-12T08:22:14.582Z,5.77
2023-02-12T08:24:45.615Z,7.25
2023-02-12T08:27:16.035Z,5.00
2023-02-12T08:29:45.563Z,5.33
2023-02-12T08:32:17.039Z,7.20
2023-02-12T08:34:46.815Z,6.27
2023-02-12T08:37:16.586Z,8.03
2023-02-12T08:39:46.396Z,6.90
2023-02-12T08:42:16.299Z,5.85
2023-02-12T08:44:46.351Z,6.35
2023-02-12T08:47:16.119Z,7.15
2023-02-12T08:49:45.882Z,7.13
2023-02-12T08:52:15.668Z,6.57
2023-02-12T08:54:45.430Z,5.63
2023-02-12T08:57:15.018Z,6.80
2023-02-12T08:59:44.789Z,5.27
2023-02-12T09:02:14.672Z,6.53
2023-02-12T09:04:44.471Z,8.53
2023-02-12T09:07:14.242Z,7.55
2023-02-12T09:09:44.018Z,6.83
2023-02-12T09:12:13.582Z,6.93
2023-02-12T09:14:44.409Z,5.60
2023-02-12T09:19:44.559Z,5.25
2023-02-12T09:22:16.231Z,6.35
2023-02-12T09:24:46.951Z,5.87
2023-02-12T09:27:16.534Z,6.97
2023-02-12T09:29:46.293Z,6.43
2023-02-12T09:32:16.067Z,6.30
2023-02-12T09:34:45.816Z,5.57
2023-02-12T09:37:17.609Z,6.80
2023-02-12T09:39:50.153Z,6.03
2023-02-12T09:42:22.087Z,6.00
2023-02-12T09:44:55.805Z,6.23
2023-02-12T09:47:34.140Z,5.43
2023-02-12T09:50:18.535Z,6.77
2023-02-12T09:52:49.628Z,5.70
2023-02-12T09:57:49.342Z,6.15
2023-02-12T10:00:31.414Z,5.67
2023-02-12T10:03:06.889Z,5.97
2023-02-12T10:05:48.156Z,4.87
2023-02-12T10:08:40.213Z,5.20
2023-02-12T10:11:15.784Z,6.30
2023-02-12T10:13:52.407Z,5.60
2023-02-12T10:16:49.832Z,6.73
2023-02-12T10:19:22.711Z,5.42
2023-02-12T10:21:56.552Z,5.10
2023-02-12T10:24:38.266Z,6.27
2023-02-12T10:27:19.630Z,6.93
2023-02-12T10:32:28.925Z,4.17
2023-02-12T10:35:05.479Z,6.03
2023-02-12T10:38:03.569Z,5.57
2023-02-12T10:40:37.584Z,4.20
2023-02-12T10:43:11.879Z,4.03
2023-02-12T10:45:43.984Z,3.53
2023-02-12T10:48:37.862Z,4.23
2023-02-12T10:51:16.527Z,3.50
2023-02-12T10:53:48.499Z,4.53
2023-02-12T10:56:21.308Z,3.57
2023-02-12T10:58:56.855Z,3.93
2023-02-12T11:01:29.969Z,3.95
2023-02-12T11:04:03.755Z,3.13
2023-02-12T11:06:34.106Z,3.80
2023-02-12T11:09:05.324Z,4.27
2023-02-12T11:14:10.413Z,3.34
2023-02-12T11:16:43.229Z,6.30
2023-02-12T11:19:28.309Z,5.50
2023-02-12T11:22:18.863Z,3.00
2023-02-12T11:24:54.527Z,4.43
2023-02-12T11:27:28.719Z,2.80
2023-02-12T11:30:18.341Z,3.37
2023-02-12T11:32:50.983Z,2.33
2023-02-12T11:35:27.914Z,3.97
2023-02-12T11:38:00.709Z,3.33
2023-02-12T11:40:36.431Z,4.23
2023-02-12T11:43:10.710Z,7.73
2023-02-12T11:45:47.936Z,4.87
2023-02-12T11:48:23.661Z,9.65
2023-02-12T11:50:59.420Z,4.03
2023-02-12T11:53:40.087Z,2.75
2023-02-12T11:56:12.775Z,3.65
2023-02-12T11:58:44.571Z,2.67
2023-02-12T12:01:25.976Z,3.90
2023-02-12T12:04:16.302Z,2.50
2023-02-12T12:06:55.018Z,2.90
2023-02-12T12:09:42.587Z,2.85
2023-02-12T12:12:24.528Z,2.80
2023-02-12T12:15:15.400Z,3.10
2023-02-12T12:18:27.252Z,3.63
2023-02-12T12:21:05.055Z,3.17
2023-02-12T12:23:46.923Z,4.43
2023-02-12T12:26:26.077Z,3.83
2023-02-12T12:29:16.583Z,4.43
2023-02-12T12:31:49.227Z,5.50
2023-02-12T12:34:21.834Z,2.00
2023-02-12T12:37:19.011Z,2.42
2023-02-12T12:40:02.164Z,4.37
2023-02-12T12:45:39.824Z,3.20
2023-02-12T12:48:27.317Z,3.23
2023-02-12T12:51:11.995Z,2.90
2023-02-12T12:54:18.187Z,3.00
2023-02-12T12:57:07.320Z,2.90
2023-02-12T12:59:42.670Z,2.10
2023-02-12T13:02:33.619Z,1.23
2023-02-12T13:05:36.866Z,3.03
2023-02-12T13:08:28.066Z,3.07
2023-02-12T13:11:04.541Z,2.55
2023-02-12T13:13:40.639Z,2.03
2023-02-12T13:16:28.329Z,2.03
2023-02-12T13:19:10.175Z,2.33
2023-02-12T13:24:24.602Z,3.25
2023-02-12T13:26:58.076Z,1.77
2023-02-12T13:29:34.285Z,2.67
2023-02-12T13:32:27.129Z,2.43
2023-02-12T13:35:00.219Z,1.92
2023-02-12T13:37:50.968Z,2.63
2023-02-12T13:40:29.509Z,2.33
2023-02-12T13:43:17.367Z,2.52
2023-02-12T13:45:53.221Z,1.80
2023-02-12T13:48:42.083Z,1.57
2023-02-12T13:51:20.979Z,2.75
2023-02-12T13:54:06.010Z,4.13
2023-02-12T13:56:44.946Z,2.67
2023-02-12T13:59:35.499Z,4.20
2023-02-12T14:02:32.156Z,3.02
2023-02-12T14:05:05.248Z,2.17
2023-02-12T14:07:52.194Z,1.73
2023-02-12T14:10:30.622Z,1.60
2023-02-12T14:13:12.348Z,2.30
2023-02-12T14:15:45.700Z,2.55
2023-02-12T14:18:26.932Z,2.20
2023-02-12T14:21:31.680Z,2.20
2023-02-12T14:24:04.330Z,3.00
2023-02-12T14:26:38.963Z,2.75
2023-02-12T14:29:11.810Z,3.13
2023-02-12T14:31:42.625Z,2.60
2023-02-12T14:34:16.693Z,2.75
2023-02-12T14:36:49.188Z,3.47
2023-02-12T14:39:25.091Z,3.67
2023-02-12T14:41:58.721Z,2.87
2023-02-12T14:44:31.547Z,2.80
2023-02-12T14:47:05.117Z,2.03
2023-02-12T14:49:42.324Z,2.37
2023-02-12T14:52:19.930Z,2.00
2023-02-12T14:54:52.986Z,3.87
2023-02-12T14:57:31.321Z,2.87
2023-02-12T15:00:18.923Z,1.90
2023-02-12T15:03:00.576Z,2.67
2023-02-12T15:05:37.320Z,4.20
2023-02-12T15:08:10.005Z,2.87
2023-02-12T15:10:42.831Z,2.47
2023-02-12T15:13:36.505Z,2.50
2023-02-12T15:16:29.714Z,2.67
2023-02-12T15:19:26.895Z,2.63
2023-02-12T15:21:57.124Z,3.90
2023-02-12T15:24:28.332Z,1.93
2023-02-12T15:27:01.039Z,4.03
2023-02-12T15:29:49.455Z,3.83
2023-02-12T15:32:28.686Z,4.30
2023-02-12T15:34:58.607Z,3.40
2023-02-12T15:37:31.505Z,3.20
2023-02-12T15:40:04.106Z,3.23
2023-02-12T15:42:38.424Z,4.90
2023-02-12T15:45:17.048Z,3.83
2023-02-12T15:47:49.236Z,3.30
2023-02-12T15:50:19.503Z,4.33
2023-02-12T15:52:52.313Z,4.20
2023-02-12T15:55:27.304Z,4.63
2023-02-12T15:58:02.456Z,4.43
2023-02-12T16:00:44.062Z,5.10
2023-02-12T16:03:26.154Z,4.60
2023-02-12T16:06:04.611Z,3.57
2023-02-12T16:08:37.528Z,5.37
2023-02-12T16:11:15.913Z,5.40
2023-02-12T16:13:52.473Z,5.93
2023-02-12T16:16:30.638Z,8.35
2023-02-12T16:19:23.559Z,5.43
2023-02-12T16:21:56.387Z,4.60
2023-02-12T16:24:35.143Z,6.03
2023-02-12T16:27:19.955Z,5.43
2023-02-12T16:29:53.164Z,5.57
2023-02-12T16:32:39.929Z,4.77
2023-02-12T16:35:16.680Z,5.70
2023-02-12T16:37:52.389Z,5.10
2023-02-12T16:40:26.110Z,3.87
2023-02-12T16:43:04.615Z,4.80
2023-02-12T16:45:39.051Z,5.30
2023-02-12T16:48:25.596Z,4.43
2023-02-12T16:50:59.852Z,4.77
2023-02-12T16:53:33.537Z,5.30
2023-02-12T16:56:05.593Z,5.47
2023-02-12T16:58:35.655Z,5.92
2023-02-12T17:01:06.771Z,5.07
2023-02-12T17:03:38.498Z,6.77
2023-02-12T17:06:08.373Z,4.87
2023-02-12T17:08:38.158Z,5.67
2023-02-12T17:11:10.734Z,5.90
2023-02-12T17:13:40.220Z,5.97
2023-02-12T17:16:12.728Z,5.97
2023-02-12T17:18:43.172Z,7.08
2023-02-12T17:21:35.117Z,6.23
2023-02-12T17:24:10.166Z,6.53
2023-02-12T17:26:50.827Z,6.07
2023-02-12T17:29:26.496Z,6.05
2023-02-12T17:32:44.973Z,6.53
2023-02-12T17:35:17.542Z,6.33
2023-02-12T17:37:48.113Z,7.00
2023-02-12T17:40:17.820Z,6.60
2023-02-12T17:42:47.897Z,7.60
2023-02-12T17:45:17.981Z,6.37
2023-02-12T17:47:47.838Z,7.13
2023-02-12T17:50:17.910Z,6.63
2023-02-12T17:52:47.848Z,6.40
2023-02-12T17:55:17.808Z,6.47
2023-02-12T17:57:47.577Z,5.57
2023-02-12T18:00:18.154Z,6.93
2023-02-12T18:02:53.616Z,6.57
2023-02-12T18:05:26.690Z,7.23
2023-02-12T18:08:09.304Z,6.60
2023-02-12T18:10:42.650Z,6.93
2023-02-12T18:13:13.937Z,6.97
2023-02-12T18:18:12.807Z,7.05
2023-02-12T18:20:42.539Z,7.63
2023-02-12T18:23:12.565Z,8.35
2023-02-12T18:25:45.724Z,7.17
2023-02-12T18:28:15.559Z,9.20
2023-02-12T18:30:45.480Z,9.67
2023-02-12T18:33:16.892Z,8.67
2023-02-12T18:36:04.661Z,8.97
2023-02-12T18:38:38.529Z,9.20
2023-02-12T18:41:16.283Z,9.26
2023-02-12T18:43:49.140Z,10.57
2023-02-12T18:46:24.446Z,9.90
2023-02-12T18:48:55.556Z,10.93
2023-02-12T18:51:27.933Z,8.20
2023-02-12T18:54:03.058Z,10.38
2023-02-12T18:56:36.000Z,8.17
2023-02-12T18:59:07.930Z,9.40
2023-02-12T19:01:38.103Z,9.93
2023-02-12T19:04:09.358Z,9.87
2023-02-12T19:06:46.475Z,10.18
2023-02-12T19:09:20.191Z,9.85
2023-02-12T19:11:52.019Z,10.80
2023-02-12T19:14:23.783Z,10.20
2023-02-12T19:16:54.023Z,9.07
2023-02-12T19:19:24.071Z,9.70
2023-02-12T19:21:53.806Z,9.10
2023-02-12T19:24:23.317Z,9.77
2023-02-12T19:26:54.483Z,9.20
2023-02-12T19:29:24.824Z,10.70
2023-02-12T19:31:54.871Z,9.33
2023-02-12T19:34:26.046Z,9.50
2023-02-12T19:39:25.950Z,10.00
2023-02-12T19:41:56.270Z,10.60
2023-02-12T19:44:26.907Z,9.00
2023-02-12T19:46:57.984Z,10.80
2023-02-12T19:49:29.486Z,7.65
2023-02-12T19:51:59.430Z,8.27
2023-02-12T19:54:29.288Z,8.03
2023-02-12T19:56:59.120Z,8.13
2023-02-12T19:59:28.950Z,10.57
2023-02-12T20:01:58.736Z,9.60
2023-02-12T20:04:28.558Z,7.90
2023-02-12T20:07:02.520Z,8.77
2023-02-12T20:09:32.449Z,9.40
2023-02-12T20:12:02.185Z,8.23
2023-02-12T20:14:33.020Z,10.07
2023-02-12T20:17:04.552Z,8.33
2023-02-12T20:19:34.421Z,9.63
2023-02-12T20:22:05.044Z,10.45
2023-02-12T20:24:35.386Z,8.50
2023-02-12T20:27:07.150Z,8.48
2023-02-12T20:29:37.346Z,8.60
2023-02-12T20:32:09.377Z,8.43
2023-02-12T20:34:50.436Z,8.13
2023-02-12T20:37:13.953Z,8.50
2023-02-12T20:39:43.583Z,8.53
2023-02-12T20:42:13.209Z,9.27
2023-02-12T20:44:42.988Z,7.87
2023-02-12T20:47:12.694Z,9.07
2023-02-12T20:49:42.574Z,9.90
2023-02-12T20:52:12.394Z,10.13
2023-02-12T20:54:42.234Z,8.37
2023-02-12T20:57:12.181Z,10.97
2023-02-12T20:59:42.153Z,8.53
2023-02-12T21:02:13.220Z,8.93
2023-02-12T21:04:43.419Z,8.70
2023-02-12T21:07:14.025Z,9.77
2023-02-12T21:09:45.093Z,8.75
2023-02-12T21:12:14.937Z,9.45
2023-02-12T21:14:45.630Z,9.20
2023-02-12T21:17:16.014Z,10.13
2023-02-12T21:19:45.986Z,10.25
2023-02-12T21:22:15.461Z,7.20
2023-02-12T21:24:46.146Z,8.00
2023-02-12T21:27:15.766Z,7.27
2023-02-12T21:29:46.442Z,9.77
2023-02-12T21:32:16.732Z,7.72
2023-02-12T21:34:50.048Z,9.40
2023-02-12T21:37:19.746Z,9.57
2023-02-12T21:39:49.554Z,9.70
2023-02-12T21:42:19.187Z,8.70
2023-02-12T21:44:49.933Z,7.80
2023-02-12T21:47:19.869Z,7.45
2023-02-12T21:49:51.954Z,8.33
2023-02-12T21:52:21.020Z,7.23
2023-02-12T21:54:51.757Z,9.50
2023-02-12T21:57:23.420Z,8.33
2023-02-12T21:59:53.195Z,9.60
2023-02-12T22:02:23.956Z,8.07
2023-02-12T22:04:55.717Z,7.00
2023-02-12T22:07:26.419Z,7.53
2023-02-12T22:09:57.341Z,6.03
2023-02-12T22:12:28.741Z,7.03
2023-02-12T22:17:26.896Z,8.30
2023-02-12T22:19:56.676Z,6.80
2023-02-12T22:22:26.606Z,6.17
2023-02-12T22:24:56.474Z,7.00
2023-02-12T22:27:26.300Z,6.23
2023-02-12T22:29:56.310Z,7.03
2023-02-12T22:32:26.839Z,7.07
2023-02-12T22:35:03.024Z,5.60
2023-02-12T22:37:33.925Z,5.23
2023-02-12T22:42:33.354Z,6.58
2023-02-12T22:45:03.254Z,6.00
2023-02-12T22:47:34.976Z,6.40
2023-02-12T22:50:04.962Z,6.53
2023-02-12T22:52:35.054Z,7.67
2023-02-12T22:55:05.035Z,6.03
2023-02-12T22:57:38.038Z,6.47
2023-02-12T23:00:10.266Z,6.30
2023-02-12T23:02:42.129Z,5.97
2023-02-12T23:05:12.829Z,6.22
2023-02-12T23:07:42.843Z,6.78
2023-02-12T23:10:12.977Z,6.60
2023-02-12T23:12:42.753Z,6.63
2023-02-12T23:15:12.545Z,7.27
2023-02-12T23:17:42.359Z,7.67
2023-02-12T23:20:13.424Z,7.25
2023-02-12T23:25:12.027Z,7.20
2023-02-12T23:27:42.671Z,6.73
2023-02-12T23:30:12.639Z,5.73
2023-02-12T23:32:42.688Z,6.62
2023-02-12T23:35:12.472Z,6.30
2023-02-12T23:37:42.239Z,6.27
2023-02-12T23:40:12.691Z,6.10
2023-02-12T23:42:46.488Z,6.10
2023-02-12T23:45:16.400Z,7.17
2023-02-12T23:47:48.109Z,7.43
2023-02-12T23:50:18.127Z,7.05
2023-02-12T23:52:47.874Z,6.57
2023-02-12T23:55:19.534Z,5.53
2023-02-12T23:57:50.415Z,7.13
